createdAt,value
2022-10-11T00:01:35.734Z,6.83
2022-10-11T00:04:05.459Z,6.00
2022-10-11T00:06:34.303Z,5.70
2022-10-11T00:09:03.880Z,8.63
2022-10-11T00:11:33.123Z,8.83
2022-10-11T00:14:03.412Z,7.50
2022-10-11T00:16:32.420Z,7.37
2022-10-11T00:19:01.549Z,5.90
2022-10-11T00:21:46.286Z,5.27
2022-10-11T00:24:16.273Z,5.40
2022-10-11T00:26:46.961Z,4.70
2022-10-11T00:29:17.355Z,9.10
2022-10-11T00:31:45.991Z,9.40
2022-10-11T00:34:17.568Z,6.13
2022-10-11T00:36:46.246Z,6.77
2022-10-11T00:39:15.121Z,5.13
2022-10-11T00:41:43.761Z,13.10
2022-10-11T00:44:15.584Z,8.67
2022-10-11T00:46:47.408Z,6.60
2022-10-11T00:49:22.793Z,8.27
2022-10-11T00:51:56.091Z,9.20
2022-10-11T00:54:28.539Z,6.67
2022-10-11T00:57:04.259Z,7.53
2022-10-11T00:59:37.885Z,6.70
2022-10-11T01:02:09.671Z,7.37
2022-10-11T01:04:39.104Z,9.60
2022-10-11T01:07:07.982Z,6.50
2022-10-11T01:09:36.878Z,7.37
2022-10-11T01:12:06.777Z,5.37
2022-10-11T01:14:45.122Z,10.10
2022-10-11T01:17:20.940Z,7.07
2022-10-11T01:19:55.362Z,4.80
2022-10-11T01:22:33.081Z,10.97
2022-10-11T01:25:16.376Z,6.60
2022-10-11T01:28:12.687Z,10.60
2022-10-11T01:30:45.981Z,5.50
2022-10-11T01:33:22.478Z,8.07
2022-10-11T01:35:56.483Z,6.40
2022-10-11T01:38:30.714Z,10.83
2022-10-11T01:41:04.133Z,7.10
2022-10-11T01:43:33.821Z,6.87
2022-10-11T01:46:12.032Z,7.13
2022-10-11T01:48:51.701Z,10.93
2022-10-11T01:51:23.562Z,7.83
2022-10-11T01:54:06.625Z,7.97
2022-10-11T01:56:55.198Z,8.10
2022-10-11T01:59:43.682Z,7.20
2022-10-11T02:02:19.540Z,7.23
2022-10-11T02:05:00.789Z,10.87
2022-10-11T02:07:43.049Z,10.93
2022-10-11T02:10:18.431Z,8.80
2022-10-11T02:12:55.592Z,10.97
2022-10-11T02:15:31.407Z,9.83
2022-10-11T02:18:08.405Z,7.60
2022-10-11T02:20:43.164Z,9.80
2022-10-11T02:23:19.397Z,8.13
2022-10-11T02:25:53.314Z,7.50
2022-10-11T02:28:39.127Z,6.13
2022-10-11T02:31:16.352Z,7.67
2022-10-11T02:33:53.863Z,9.00
2022-10-11T02:36:37.460Z,6.70
2022-10-11T02:39:24.732Z,10.63
2022-10-11T02:45:07.261Z,9.10
2022-10-11T02:47:37.052Z,7.23
2022-10-11T02:55:50.750Z,6.53
2022-10-11T02:58:36.703Z,7.37
2022-10-11T03:01:16.002Z,8.07
2022-10-11T03:03:45.098Z,7.73
2022-10-11T03:06:14.774Z,8.23
2022-10-11T03:08:43.291Z,9.97
2022-10-11T03:11:12.524Z,7.03
2022-10-11T03:13:42.068Z,10.03
2022-10-11T03:16:15.409Z,6.90
2022-10-11T03:18:44.448Z,8.77
2022-10-11T03:21:12.911Z,9.90
2022-10-11T03:23:42.884Z,12.13
2022-10-11T03:26:13.807Z,8.70
2022-10-11T03:28:42.969Z,7.40
2022-10-11T03:31:16.041Z,15.50
2022-10-11T03:33:46.774Z,6.60
2022-10-11T03:36:17.170Z,8.00
2022-10-11T03:38:46.597Z,7.13
2022-10-11T03:49:16.499Z,9.70
2022-10-11T03:51:47.197Z,7.30
2022-10-11T03:54:16.568Z,9.30
2022-10-11T03:56:45.429Z,7.80
2022-10-11T03:59:15.881Z,7.47
2022-10-11T04:01:44.755Z,7.63
2022-10-11T04:04:13.787Z,11.33
2022-10-11T04:06:49.829Z,4.47
2022-10-11T04:09:18.947Z,6.07
2022-10-11T04:11:48.503Z,8.00
2022-10-11T04:14:17.516Z,13.07
2022-10-11T04:16:48.524Z,12.00
2022-10-11T04:19:31.370Z,8.50
2022-10-11T04:22:03.652Z,9.37
2022-10-11T04:32:43.967Z,5.83
2022-10-11T04:35:13.873Z,6.57
2022-10-11T04:37:45.206Z,4.13
2022-10-11T04:40:17.342Z,5.53
2022-10-11T04:45:55.245Z,6.07
2022-10-11T04:48:28.126Z,5.93
2022-10-11T04:53:54.805Z,4.93
2022-10-11T04:56:45.257Z,5.83
2022-10-11T04:59:36.391Z,6.43
2022-10-11T05:02:04.703Z,8.40
2022-10-11T05:04:32.781Z,5.37
2022-10-11T05:07:00.762Z,6.07
2022-10-11T05:32:31.183Z,9.43
2022-10-11T05:35:09.857Z,9.03
2022-10-11T05:37:44.498Z,8.03
2022-10-11T05:45:48.445Z,7.40
2022-10-11T07:17:47.885Z,10.67
2022-10-11T11:23:44.009Z,13.23
2022-10-11T11:51:09.409Z,7.33
2022-10-11T11:54:31.497Z,10.37
2022-10-11T12:01:37.518Z,11.97
2022-10-11T14:36:58.204Z,15.57
2022-10-11T14:39:43.740Z,9.13
2022-10-11T14:42:45.138Z,14.50
2022-10-11T14:45:16.955Z,11.87
2022-10-11T14:50:47.876Z,10.37
2022-10-11T14:53:18.391Z,12.77
2022-10-11T14:55:50.621Z,12.03
2022-10-11T14:58:27.649Z,12.90
2022-10-11T15:01:06.823Z,12.40
2022-10-11T15:03:38.638Z,12.30
2022-10-11T15:06:08.916Z,8.33
2022-10-11T15:11:24.455Z,9.23
2022-10-11T15:13:58.153Z,11.47
2022-10-11T15:16:28.054Z,7.90
2022-10-11T15:18:57.044Z,12.40
2022-10-11T15:24:11.387Z,13.53
2022-10-11T15:26:41.096Z,8.27
2022-10-11T15:29:20.453Z,8.53
2022-10-11T15:31:53.995Z,7.60
2022-10-11T15:34:23.496Z,8.87
2022-10-11T15:36:53.965Z,10.10
2022-10-11T15:39:28.181Z,14.10
2022-10-11T15:41:56.862Z,13.07
2022-10-11T15:45:22.590Z,7.47
2022-10-11T15:47:57.005Z,6.00
2022-10-11T15:50:37.752Z,14.20
2022-10-11T15:53:09.205Z,9.63
2022-10-11T15:55:40.859Z,10.57
2022-10-11T15:58:17.578Z,7.93
2022-10-11T16:00:48.586Z,10.23
2022-10-11T16:03:19.681Z,8.37
2022-10-11T16:05:48.669Z,10.80
2022-10-11T16:08:17.827Z,7.83
2022-10-11T16:10:47.779Z,7.80
2022-10-11T16:13:16.320Z,9.53
2022-10-11T16:15:44.980Z,9.53
2022-10-11T16:18:15.439Z,8.20
2022-10-11T16:20:47.030Z,13.03
2022-10-11T16:23:16.093Z,11.30
2022-10-11T16:25:44.549Z,10.33
2022-10-11T16:28:17.418Z,8.60
2022-10-11T16:33:49.567Z,8.03
2022-10-11T16:36:43.304Z,11.63
2022-10-11T16:39:15.202Z,14.53
2022-10-11T16:41:45.325Z,10.00
2022-10-11T16:44:15.717Z,11.67
2022-10-11T16:46:48.557Z,13.10
2022-10-11T16:52:20.005Z,12.43
2022-10-11T16:54:50.712Z,14.90
2022-10-11T16:57:23.494Z,18.70
2022-10-11T16:59:58.273Z,10.27
2022-10-11T17:05:16.491Z,8.17
2022-10-11T17:07:47.378Z,10.03
2022-10-11T17:10:16.809Z,14.20
2022-10-11T17:12:49.894Z,9.37
2022-10-11T17:15:32.957Z,8.60
2022-10-11T17:18:18.369Z,12.80
2022-10-11T17:20:47.597Z,14.60
2022-10-11T18:04:58.360Z,16.40
2022-10-11T18:07:40.696Z,18.67
2022-10-11T18:10:10.888Z,14.20
2022-10-11T18:12:41.353Z,14.07
2022-10-11T18:15:13.651Z,18.30
2022-10-11T18:21:00.654Z,12.13
2022-10-11T18:23:35.736Z,17.70
2022-10-11T18:26:21.293Z,16.83
2022-10-11T18:28:53.469Z,13.70
2022-10-11T18:31:35.175Z,11.63
2022-10-11T18:34:11.899Z,20.63
2022-10-11T18:36:42.722Z,14.77
2022-10-11T18:39:15.958Z,15.20
2022-10-11T18:44:41.600Z,20.80
2022-10-11T18:47:13.248Z,15.87
2022-10-11T18:49:44.115Z,13.90
2022-10-11T18:52:13.223Z,15.43
2022-10-11T18:54:41.800Z,18.10
2022-10-11T18:59:53.732Z,15.33
2022-10-11T19:02:23.222Z,14.20
2022-10-11T19:04:54.995Z,18.83
2022-10-11T19:07:26.403Z,13.93
2022-10-11T19:09:56.052Z,15.83
2022-10-11T19:12:25.448Z,15.93
2022-10-11T19:14:55.697Z,16.03
2022-10-11T19:17:25.488Z,17.80
2022-10-11T19:19:57.791Z,18.20
2022-10-11T19:25:24.717Z,14.87
2022-10-11T19:41:55.521Z,20.03
2022-10-11T19:47:17.409Z,17.50
2022-10-11T20:06:14.699Z,17.10
2022-10-11T20:11:55.680Z,17.43
2022-10-11T20:17:52.862Z,18.97
2022-10-11T20:20:27.296Z,20.13
2022-10-11T20:22:58.986Z,17.70
2022-10-11T20:28:21.898Z,17.37
2022-10-11T20:30:55.416Z,20.43
2022-10-11T20:33:25.971Z,23.53
2022-10-11T20:36:07.646Z,21.03
2022-10-11T20:41:27.294Z,22.97
2022-10-11T20:43:58.466Z,17.97
2022-10-11T21:06:40.769Z,26.43
2022-10-11T21:14:44.074Z,19.27
2022-10-11T21:17:18.102Z,19.67
2022-10-11T21:19:51.428Z,19.17
2022-10-11T21:25:21.622Z,20.93
2022-10-11T21:28:03.274Z,19.97
2022-10-11T21:31:00.832Z,18.77
2022-10-11T21:33:59.017Z,20.27
2022-10-11T21:36:37.682Z,25.23
2022-10-11T21:39:06.432Z,23.60
2022-10-11T21:41:36.622Z,21.83
2022-10-11T21:44:05.636Z,23.97
2022-10-11T21:47:04.820Z,24.50
2022-10-11T21:53:08.876Z,21.00
2022-10-11T21:56:03.688Z,20.47
2022-10-11T21:58:33.747Z,19.03
2022-10-11T22:01:08.421Z,29.87
2022-10-11T22:03:39.742Z,19.70
2022-10-11T22:09:19.257Z,20.60
2022-10-11T22:11:54.467Z,22.03
2022-10-11T22:14:26.147Z,19.80
2022-10-11T22:16:55.126Z,20.17
2022-10-11T22:19:24.948Z,26.87
2022-10-11T22:21:56.084Z,23.90
2022-10-11T22:24:28.613Z,19.87
2022-10-11T22:27:01.802Z,19.77
2022-10-11T22:29:34.215Z,22.87
2022-10-11T22:32:18.422Z,22.77
2022-10-11T22:34:48.819Z,19.57
2022-10-11T22:37:30.822Z,22.97
2022-10-11T22:40:08.176Z,26.17
2022-10-11T22:42:38.332Z,23.03
2022-10-11T22:45:09.327Z,20.97
2022-10-11T22:47:38.371Z,23.40
2022-10-11T23:06:31.545Z,25.97
2022-10-11T23:11:55.698Z,23.50
2022-10-11T23:14:26.695Z,29.77
2022-10-11T23:17:11.281Z,24.60
2022-10-11T23:19:48.656Z,27.00
2022-10-11T23:22:23.655Z,22.90
2022-10-11T23:24:54.443Z,26.93
2022-10-11T23:27:28.076Z,26.83
2022-10-11T23:30:05.306Z,25.00
2022-10-11T23:32:43.065Z,26.43
2022-10-11T23:35:12.444Z,29.77
2022-10-11T23:37:45.726Z,27.07
2022-10-11T23:40:17.065Z,28.63
2022-10-11T23:42:56.310Z,27.30
2022-10-11T23:45:45.284Z,31.17
2022-10-11T23:48:16.719Z,26.47
2022-10-11T23:50:49.131Z,26.37
2022-10-11T23:53:23.059Z,26.93
2022-10-11T23:56:06.044Z,30.00
2022-10-11T23:58:37.804Z,30.10
